Time;durP1;ratioP1;P1;durP2;ratioP2;P2;SDS_P1;SDS_P2;PMS_P1;PMS_P2;Temp;Humidity;BMP_temperature;BMP_pressure;BME280_temperature;BME280_humidity;BME280_pressure;Samples;Min_cycle;Max_cycle;Signal;HPM_P1;HPM_P2
2021/05/05 00:01:57;;;;;;;2.60;2.13;;;10.10;94.40;;;;;;5025405;28;21100;-61
2021/05/05 00:04:23;;;;;;;2.40;2.20;;;10.10;94.20;;;;;;5028609;28;20180;-60
2021/05/05 00:06:50;;;;;;;2.40;1.70;;;10.00;95.00;;;;;;5039164;28;20418;-60
2021/05/05 00:09:16;;;;;;;3.07;2.10;;;10.00;95.30;;;;;;5047512;28;20446;-62
2021/05/05 00:11:42;;;;;;;3.53;2.00;;;9.90;96.10;;;;;;5056657;28;20465;-60
2021/05/05 00:14:14;;;;;;;2.53;1.70;;;9.90;96.60;;;;;;5063061;28;20478;-61
2021/05/05 00:16:40;;;;;;;3.90;2.63;;;9.80;96.90;;;;;;5048499;28;20430;-60
2021/05/05 00:19:06;;;;;;;4.00;2.03;;;9.70;97.60;;;;;;5054189;28;20469;-61
2021/05/05 00:21:33;;;;;;;4.67;2.33;;;9.70;98.70;;;;;;5048770;28;20418;-59
2021/05/05 00:24:00;;;;;;;2.10;2.00;;;9.60;99.10;;;;;;5035916;28;20512;-59
2021/05/05 00:26:25;;;;;;;2.40;2.10;;;9.60;99.30;;;;;;5023406;28;20439;-60
2021/05/05 00:28:51;;;;;;;2.40;2.20;;;9.50;99.60;;;;;;5032599;28;20440;-60
2021/05/05 00:31:17;;;;;;;5.40;2.50;;;9.50;99.90;;;;;;5029892;28;20751;-60
2021/05/05 00:33:45;;;;;;;3.37;2.30;;;9.50;99.80;;;;;;5030477;28;20296;-60
2021/05/05 00:36:11;;;;;;;3.70;2.70;;;9.40;99.90;;;;;;5024180;28;20426;-60
2021/05/05 00:38:37;;;;;;;3.20;2.43;;;9.40;99.90;;;;;;5028568;28;20434;-60
2021/05/05 00:41:10;;;;;;;4.07;2.20;;;9.30;99.90;;;;;;5025700;28;20464;-61
2021/05/05 00:43:37;;;;;;;3.03;2.50;;;9.30;99.90;;;;;;5032151;28;20458;-60
2021/05/05 00:46:04;;;;;;;3.63;2.57;;;9.30;99.90;;;;;;5041145;28;20496;-60
2021/05/05 00:48:30;;;;;;;2.40;2.20;;;9.30;99.90;;;;;;5025499;28;20815;-59
2021/05/05 00:50:57;;;;;;;2.40;2.20;;;9.30;99.90;;;;;;5028899;28;20509;-59
2021/05/05 00:53:23;;;;;;;2.40;2.10;;;9.20;99.90;;;;;;5028882;28;20473;-60
2021/05/05 00:55:49;;;;;;;2.33;2.10;;;9.20;99.90;;;;;;5027335;28;20451;-61
2021/05/05 00:58:17;;;;;;;2.13;1.93;;;9.20;99.90;;;;;;5030464;28;20440;-60
2021/05/05 01:00:47;;;;;;;2.13;1.93;;;9.20;99.90;;;;;;5026655;28;20465;-60
2021/05/05 01:03:14;;;;;;;2.20;2.00;;;9.20;99.90;;;;;;5030474;28;20442;-60
2021/05/05 01:05:40;;;;;;;2.23;2.03;;;9.20;99.90;;;;;;5026619;28;20431;-59
2021/05/05 01:08:07;;;;;;;2.50;2.30;;;9.20;99.90;;;;;;5031353;28;20454;-60
2021/05/05 01:10:33;;;;;;;2.00;1.90;;;9.20;99.90;;;;;;5032317;28;20430;-60
2021/05/05 01:12:59;;;;;;;2.13;2.03;;;9.20;99.90;;;;;;5037744;28;20474;-59
2021/05/05 01:15:25;;;;;;;2.10;2.00;;;9.10;99.90;;;;;;5044042;28;20430;-61
2021/05/05 01:17:51;;;;;;;2.03;1.93;;;9.10;99.90;;;;;;5027211;28;20999;-60
2021/05/05 01:20:17;;;;;;;2.17;2.07;;;9.10;99.90;;;;;;5028050;28;20211;-61
2021/05/05 01:22:43;;;;;;;3.60;2.03;;;9.10;99.90;;;;;;5028737;28;20188;-60
2021/05/05 01:25:12;;;;;;;2.20;2.00;;;9.10;99.90;;;;;;5028675;28;20434;-60
2021/05/05 01:27:39;;;;;;;2.50;2.20;;;9.10;99.90;;;;;;5017949;28;20419;-60
2021/05/05 01:30:06;;;;;;;2.63;2.43;;;9.10;99.90;;;;;;5033376;28;20433;-60
2021/05/05 01:32:32;;;;;;;2.00;1.90;;;9.10;99.90;;;;;;5038954;28;20446;-60
2021/05/05 01:34:57;;;;;;;2.40;2.20;;;9.00;99.90;;;;;;5029493;28;20894;-59
2021/05/05 01:37:23;;;;;;;2.67;1.87;;;9.00;99.90;;;;;;5023791;28;20180;-60
2021/05/05 01:39:49;;;;;;;2.60;2.40;;;9.00;99.90;;;;;;5043353;28;20728;-60
2021/05/05 01:42:15;;;;;;;1.93;1.83;;;9.00;99.90;;;;;;5034913;28;20268;-59
2021/05/05 01:44:41;;;;;;;2.20;1.90;;;9.00;99.90;;;;;;5029630;28;20703;-60
2021/05/05 01:47:12;;;;;;;1.90;1.80;;;9.00;99.90;;;;;;5028296;28;20619;-60
2021/05/05 01:49:43;;;;;;;2.60;2.40;;;9.00;99.90;;;;;;5028746;28;20460;-60
2021/05/05 01:52:09;;;;;;;2.27;2.07;;;9.00;99.90;;;;;;5026849;28;20848;-59
2021/05/05 01:54:36;;;;;;;1.80;1.70;;;8.90;99.90;;;;;;5037631;28;20437;-60
2021/05/05 01:57:24;;;;;;;2.40;2.20;;;8.90;99.90;;;;;;5025851;28;20438;-60
2021/05/05 01:59:50;;;;;;;2.53;1.83;;;8.90;99.90;;;;;;5031725;28;20489;-59
2021/05/05 02:02:16;;;;;;;2.47;2.27;;;8.90;99.90;;;;;;5032840;28;20462;-61
2021/05/05 02:04:42;;;;;;;3.70;2.07;;;8.90;99.90;;;;;;5018133;28;20980;-61
2021/05/05 02:07:08;;;;;;;3.73;2.00;;;8.90;99.90;;;;;;5017467;28;20589;-60
2021/05/05 02:09:34;;;;;;;2.37;2.17;;;8.90;99.90;;;;;;5027215;28;20517;-60
2021/05/05 02:12:00;;;;;;;2.93;1.83;;;8.90;99.90;;;;;;5024059;28;20221;-60
2021/05/05 02:14:25;;;;;;;1.93;1.80;;;8.90;99.90;;;;;;5030036;28;20438;-60
2021/05/05 02:16:58;;;;;;;1.57;1.47;;;8.90;99.90;;;;;;5026279;28;20680;-60
2021/05/05 02:19:24;;;;;;;1.40;1.30;;;8.90;99.90;;;;;;5024275;28;20211;-61
2021/05/05 02:21:50;;;;;;;1.40;1.30;;;8.80;99.90;;;;;;5018791;28;20869;-60
2021/05/05 02:24:16;;;;;;;1.40;1.30;;;8.80;99.90;;;;;;5024205;28;21075;-60
2021/05/05 02:26:42;;;;;;;1.47;1.30;;;8.80;99.90;;;;;;5022958;28;20792;-60
2021/05/05 02:29:08;;;;;;;1.40;1.30;;;8.70;99.90;;;;;;5024427;28;20179;-60
2021/05/05 02:31:34;;;;;;;1.00;1.00;;;8.70;99.90;;;;;;5033020;28;20203;-60
2021/05/05 02:34:00;;;;;;;0.90;0.90;;;8.60;99.90;;;;;;5021614;28;20422;-60
2021/05/05 02:36:28;;;;;;;1.43;0.83;;;8.60;99.90;;;;;;5025936;28;20427;-60
2021/05/05 02:38:54;;;;;;;0.90;0.90;;;8.50;99.90;;;;;;5024910;28;20190;-60
2021/05/05 02:41:20;;;;;;;1.63;0.90;;;8.40;99.90;;;;;;5039345;28;20413;-60
2021/05/05 02:43:45;;;;;;;0.77;0.77;;;8.40;99.90;;;;;;5029668;28;20179;-60
2021/05/05 02:46:11;;;;;;;0.80;0.80;;;8.30;99.90;;;;;;5034315;28;20410;-59
2021/05/05 02:48:37;;;;;;;0.80;0.80;;;8.30;99.90;;;;;;5025287;28;20305;-60
2021/05/05 02:51:02;;;;;;;1.27;0.70;;;8.20;99.90;;;;;;5036836;28;20534;-60
2021/05/05 02:53:28;;;;;;;1.43;0.77;;;8.20;99.90;;;;;;5026747;28;20203;-60
2021/05/05 02:55:54;;;;;;;0.77;0.77;;;8.10;99.90;;;;;;5026265;28;20187;-60
2021/05/05 02:58:19;;;;;;;0.90;0.90;;;8.10;99.90;;;;;;5022806;28;20270;-59
2021/05/05 03:00:45;;;;;;;2.60;0.90;;;8.00;99.90;;;;;;5035556;28;20191;-59
2021/05/05 03:03:11;;;;;;;1.73;0.70;;;7.80;99.90;;;;;;5041169;28;20180;-60
2021/05/05 03:05:36;;;;;;;1.83;0.80;;;7.70;99.90;;;;;;5018758;28;20828;-60
2021/05/05 03:08:03;;;;;;;0.83;0.80;;;7.50;99.90;;;;;;5034498;28;20183;-58
2021/05/05 03:10:28;;;;;;;1.00;0.90;;;7.40;99.90;;;;;;5027462;28;20849;-59
2021/05/05 03:12:54;;;;;;;0.60;0.60;;;7.30;99.90;;;;;;5022780;28;20671;-60
2021/05/05 03:15:20;;;;;;;0.70;0.70;;;7.10;99.90;;;;;;5026946;28;20196;-60
2021/05/05 03:17:45;;;;;;;0.70;0.70;;;7.10;99.90;;;;;;5031102;28;20306;-59
2021/05/05 03:20:12;;;;;;;0.80;0.80;;;7.00;99.90;;;;;;5030112;28;20541;-60
2021/05/05 03:22:38;;;;;;;0.73;0.73;;;6.90;99.90;;;;;;5020981;28;20202;-59
2021/05/05 03:25:07;;;;;;;0.70;0.70;;;6.80;99.90;;;;;;5026143;28;20418;-59
2021/05/05 03:27:32;;;;;;;0.90;0.90;;;6.80;99.90;;;;;;5026012;28;20426;-59
2021/05/05 03:29:58;;;;;;;1.13;0.83;;;6.70;99.90;;;;;;5037276;28;20434;-60
2021/05/05 03:32:24;;;;;;;0.90;0.77;;;6.70;99.90;;;;;;5031156;28;20206;-61
2021/05/05 03:34:49;;;;;;;0.80;0.80;;;6.70;99.90;;;;;;5028367;28;20180;-59
2021/05/05 03:37:15;;;;;;;0.60;0.60;;;6.70;99.90;;;;;;5023993;28;20283;-59
2021/05/05 03:39:41;;;;;;;0.70;0.70;;;6.60;99.90;;;;;;5030229;28;20235;-60
2021/05/05 03:42:07;;;;;;;0.80;0.80;;;6.60;99.90;;;;;;5032951;28;20453;-60
2021/05/05 03:44:33;;;;;;;1.53;0.80;;;6.50;99.90;;;;;;5029777;28;20246;-61
2021/05/05 03:46:58;;;;;;;1.10;0.80;;;6.50;99.90;;;;;;5026992;28;20522;-60
2021/05/05 03:49:24;;;;;;;1.10;0.90;;;6.40;99.90;;;;;;5041357;28;20548;-59
2021/05/05 03:51:49;;;;;;;2.53;0.80;;;6.40;99.90;;;;;;5032685;28;20294;-61
2021/05/05 03:54:16;;;;;;;0.80;0.80;;;6.40;99.90;;;;;;5022304;28;20171;-59
2021/05/05 03:56:42;;;;;;;1.10;1.00;;;6.40;99.90;;;;;;5028275;28;20195;-60
2021/05/05 03:59:07;;;;;;;1.67;0.87;;;6.40;99.90;;;;;;5039942;28;20463;-60
2021/05/05 04:01:33;;;;;;;0.70;0.70;;;6.30;99.90;;;;;;5031810;28;20191;-60
2021/05/05 04:03:59;;;;;;;0.80;0.80;;;6.30;99.90;;;;;;5023562;28;20179;-59
2021/05/05 04:06:24;;;;;;;1.23;0.90;;;6.30;99.90;;;;;;5028335;28;20168;-59
2021/05/05 04:08:50;;;;;;;2.03;1.00;;;6.30;99.90;;;;;;5014765;28;20294;-59
2021/05/05 04:11:16;;;;;;;0.90;0.90;;;6.20;99.90;;;;;;5026339;28;20262;-59
2021/05/05 04:13:42;;;;;;;0.80;0.80;;;6.20;99.90;;;;;;5028447;28;20200;-60
2021/05/05 04:16:07;;;;;;;0.80;0.77;;;6.20;99.90;;;;;;5044855;28;20198;-59
2021/05/05 04:18:33;;;;;;;0.70;0.70;;;6.20;99.90;;;;;;5024437;28;20176;-59
2021/05/05 04:21:02;;;;;;;1.30;1.20;;;6.20;99.90;;;;;;5029919;28;20199;-59
2021/05/05 04:23:27;;;;;;;0.83;0.83;;;6.20;99.90;;;;;;5030886;28;20200;-59
2021/05/05 04:25:54;;;;;;;0.80;0.80;;;6.20;99.90;;;;;;5020871;28;20440;-60
2021/05/05 04:28:20;;;;;;;1.03;0.80;;;6.20;99.90;;;;;;5034289;28;20262;-60
2021/05/05 04:30:46;;;;;;;2.30;0.83;;;6.20;99.90;;;;;;5038362;28;20507;-61
2021/05/05 04:33:15;;;;;;;0.90;0.90;;;6.10;99.90;;;;;;5023622;28;20488;-60
2021/05/05 04:35:40;;;;;;;0.90;0.90;;;6.10;99.90;;;;;;5023787;28;20233;-60
2021/05/05 04:38:06;;;;;;;0.70;0.70;;;6.10;99.90;;;;;;5019353;28;20450;-63
2021/05/05 04:40:32;;;;;;;0.70;0.70;;;6.10;99.90;;;;;;5024266;28;20653;-60
2021/05/05 04:42:57;;;;;;;1.23;0.80;;;6.10;99.90;;;;;;5015508;28;20296;-60
2021/05/05 04:45:23;;;;;;;0.70;0.70;;;6.10;99.90;;;;;;5027577;28;20420;-60
2021/05/05 04:47:49;;;;;;;0.87;0.87;;;6.10;99.90;;;;;;5027680;28;20210;-60
2021/05/05 04:50:14;;;;;;;0.83;0.83;;;6.10;99.90;;;;;;5022862;28;20190;-60
2021/05/05 04:52:40;;;;;;;0.83;0.83;;;6.00;99.90;;;;;;5025051;28;20688;-59
2021/05/05 04:55:08;;;;;;;1.43;0.80;;;6.00;99.90;;;;;;5021287;28;20187;-60
2021/05/05 04:57:35;;;;;;;1.33;1.23;;;6.00;99.90;;;;;;5022266;28;20406;-62
2021/05/05 05:00:01;;;;;;;0.80;0.80;;;6.00;99.90;;;;;;5021178;28;20624;-60
2021/05/05 05:02:26;;;;;;;1.73;1.00;;;6.00;99.90;;;;;;5022170;28;20462;-61
2021/05/05 05:04:52;;;;;;;1.90;0.83;;;6.00;99.90;;;;;;5026431;28;20438;-58
2021/05/05 05:07:18;;;;;;;0.87;0.87;;;6.10;99.90;;;;;;5022204;28;20184;-60
2021/05/05 05:09:43;;;;;;;0.90;0.90;;;6.10;99.90;;;;;;5014307;28;20210;-60
2021/05/05 05:12:09;;;;;;;1.00;0.90;;;6.10;99.90;;;;;;5024396;28;20239;-59
2021/05/05 05:14:36;;;;;;;1.13;0.97;;;6.10;99.90;;;;;;5026376;28;20233;-59
2021/05/05 05:17:03;;;;;;;0.80;0.80;;;6.10;99.90;;;;;;5047252;28;20434;-61
2021/05/05 05:19:28;;;;;;;1.13;0.90;;;6.20;99.90;;;;;;5023553;28;21111;-59
2021/05/05 05:21:54;;;;;;;1.10;1.00;;;6.20;99.90;;;;;;5020244;28;20459;-59
2021/05/05 05:24:20;;;;;;;1.10;1.00;;;6.30;99.90;;;;;;5022710;28;20183;-59
2021/05/05 05:26:45;;;;;;;0.93;0.90;;;6.30;99.90;;;;;;5018740;28;20191;-60
2021/05/05 05:29:11;;;;;;;2.70;1.13;;;6.30;99.90;;;;;;5018756;28;20256;-59
2021/05/05 05:31:37;;;;;;;1.10;1.10;;;6.30;99.90;;;;;;5025987;28;20195;-60
2021/05/05 05:34:02;;;;;;;1.20;1.10;;;6.40;99.90;;;;;;5028927;28;20172;-59
2021/05/05 05:36:28;;;;;;;1.00;1.00;;;6.40;99.90;;;;;;5009016;28;20719;-59
2021/05/05 05:38:54;;;;;;;0.90;0.90;;;6.40;99.90;;;;;;5019947;28;20625;-59
2021/05/05 05:41:20;;;;;;;0.93;0.93;;;6.40;99.90;;;;;;5021014;28;20266;-59
2021/05/05 05:43:46;;;;;;;3.53;1.10;;;6.50;99.90;;;;;;5021106;28;20176;-58
2021/05/05 05:46:11;;;;;;;0.90;0.90;;;6.50;99.90;;;;;;5026610;28;20191;-58
2021/05/05 05:48:37;;;;;;;1.20;1.10;;;6.60;99.90;;;;;;5024031;28;20203;-58
2021/05/05 05:51:03;;;;;;;1.47;1.00;;;6.60;99.90;;;;;;5031611;28;20224;-59
2021/05/05 05:53:29;;;;;;;0.90;0.90;;;6.60;99.90;;;;;;5027983;28;21236;-59
2021/05/05 05:55:55;;;;;;;0.80;0.80;;;6.60;99.90;;;;;;5024901;28;20453;-59
2021/05/05 05:58:21;;;;;;;0.80;0.80;;;6.50;99.90;;;;;;5022894;28;20711;-59
2021/05/05 06:00:46;;;;;;;1.20;1.10;;;6.50;99.90;;;;;;5024369;28;20208;-59
2021/05/05 06:03:12;;;;;;;1.43;0.90;;;6.50;99.90;;;;;;5025615;28;20738;-61
2021/05/05 06:05:38;;;;;;;0.83;0.80;;;6.50;99.90;;;;;;5026301;28;20184;-60
2021/05/05 06:08:04;;;;;;;1.47;1.37;;;6.50;99.90;;;;;;5022797;28;20213;-59
2021/05/05 06:10:30;;;;;;;1.30;1.20;;;6.60;99.90;;;;;;5017853;28;20188;-58
2021/05/05 06:12:56;;;;;;;0.83;0.83;;;6.60;99.90;;;;;;5027806;28;20480;-58
2021/05/05 06:15:22;;;;;;;1.50;1.40;;;6.70;99.90;;;;;;5028862;28;20442;-58
2021/05/05 06:17:51;;;;;;;1.27;0.83;;;6.70;99.90;;;;;;5020506;28;20441;-58
2021/05/05 06:20:17;;;;;;;0.90;0.90;;;6.70;99.90;;;;;;5023094;28;20454;-58
2021/05/05 06:22:43;;;;;;;0.90;0.90;;;6.60;99.90;;;;;;5018662;28;20466;-58
2021/05/05 06:25:12;;;;;;;2.90;1.00;;;6.60;99.90;;;;;;5024894;28;20592;-59
2021/05/05 06:27:38;;;;;;;0.83;0.83;;;6.60;99.90;;;;;;5023674;28;20269;-58
2021/05/05 06:30:08;;;;;;;0.87;0.87;;;6.60;99.90;;;;;;5020531;28;20468;-59
2021/05/05 06:32:34;;;;;;;1.10;1.00;;;6.60;99.90;;;;;;5020639;28;20210;-60
2021/05/05 06:35:00;;;;;;;0.80;0.80;;;6.60;99.90;;;;;;5023212;28;20533;-60
2021/05/05 06:37:26;;;;;;;0.90;0.90;;;6.60;99.90;;;;;;5020034;28;20443;-58
2021/05/05 06:39:53;;;;;;;1.13;0.97;;;6.60;99.90;;;;;;5025708;28;20833;-59
2021/05/05 06:42:19;;;;;;;0.90;0.90;;;6.50;99.90;;;;;;5024231;28;20210;-60
2021/05/05 06:44:45;;;;;;;1.00;1.00;;;6.60;99.90;;;;;;5025099;28;20464;-58
2021/05/05 06:47:11;;;;;;;1.30;1.00;;;6.60;99.90;;;;;;5020251;28;20426;-57
2021/05/05 06:49:37;;;;;;;0.80;0.80;;;6.70;99.90;;;;;;5022683;28;20183;-59
2021/05/05 06:52:02;;;;;;;0.90;0.90;;;6.90;99.90;;;;;;5026352;28;20203;-58
2021/05/05 06:54:28;;;;;;;0.80;0.80;;;7.10;99.90;;;;;;5022574;28;20194;-59
2021/05/05 06:56:54;;;;;;;0.90;0.90;;;7.30;99.90;;;;;;5030495;28;20687;-58
2021/05/05 06:59:20;;;;;;;0.70;0.70;;;7.40;99.10;;;;;;5024526;28;20462;-58
2021/05/05 07:01:46;;;;;;;0.70;0.70;;;7.50;98.30;;;;;;5015870;28;20200;-59
2021/05/05 07:04:14;;;;;;;0.90;0.90;;;7.50;97.80;;;;;;5019324;28;20304;-59
2021/05/05 07:06:40;;;;;;;0.80;0.80;;;7.50;97.20;;;;;;5025192;28;20391;-60
2021/05/05 07:09:06;;;;;;;0.80;0.80;;;7.40;97.60;;;;;;5034202;28;20423;-58
2021/05/05 07:11:35;;;;;;;0.80;0.80;;;7.40;98.40;;;;;;5042122;28;20175;-60
2021/05/05 07:14:01;;;;;;;0.80;0.80;;;7.30;98.30;;;;;;5024963;28;20453;-57
2021/05/05 07:16:26;;;;;;;0.90;0.90;;;7.40;99.10;;;;;;5022635;28;20488;-59
2021/05/05 07:18:52;;;;;;;1.00;0.87;;;7.50;98.60;;;;;;5030979;28;20792;-60
2021/05/05 07:21:18;;;;;;;0.70;0.70;;;7.70;98.60;;;;;;5030036;28;20192;-59
2021/05/05 07:23:44;;;;;;;0.87;0.80;;;7.70;97.70;;;;;;5042867;28;20187;-60
2021/05/05 07:26:11;;;;;;;0.80;0.80;;;7.70;97.50;;;;;;5033006;28;20840;-58
2021/05/05 07:28:38;;;;;;;0.90;0.90;;;7.70;97.20;;;;;;5030471;28;20187;-58
2021/05/05 07:31:04;;;;;;;0.90;0.90;;;7.70;97.80;;;;;;5033592;28;20418;-57
2021/05/05 07:33:31;;;;;;;1.10;1.00;;;7.80;99.10;;;;;;5029605;28;20939;-58
2021/05/05 07:35:58;;;;;;;1.00;0.90;;;7.80;98.50;;;;;;5034293;28;20463;-59
2021/05/05 07:44:38;;;;;;;;;;;;;;;;;;;;;
2021/05/05 07:47:03;;;;;;;1.13;0.97;;;7.70;97.80;;;;;;5026517;28;20495;-58
2021/05/05 07:49:19;;;;;;;1.17;1.17;;;7.90;98.00;;;;;;5018666;28;20407;-59
2021/05/05 07:51:45;;;;;;;1.40;1.30;;;8.00;96.30;;;;;;5035584;28;20532;-59
2021/05/05 07:54:12;;;;;;;1.60;1.50;;;8.00;94.00;;;;;;5043011;28;20421;-58
2021/05/05 07:56:38;;;;;;;2.20;1.43;;;7.90;93.40;;;;;;5035510;28;20919;-59
2021/05/05 07:59:04;;;;;;;3.00;1.50;;;7.70;92.30;;;;;;5031348;28;20469;-59
2021/05/05 08:01:31;;;;;;;1.37;1.20;;;7.60;94.30;;;;;;5029655;28;20643;-58
2021/05/05 08:03:57;;;;;;;3.93;2.00;;;7.40;94.30;;;;;;5024675;28;20422;-59
2021/05/05 08:06:24;;;;;;;1.17;1.17;;;7.40;95.30;;;;;;5026706;28;20431;-59
2021/05/05 08:08:49;;;;;;;1.50;1.40;;;7.30;95.20;;;;;;5026719;28;20958;-59
2021/05/05 08:11:16;;;;;;;1.50;1.40;;;7.30;93.60;;;;;;5026459;28;20496;-59
2021/05/05 08:13:42;;;;;;;6.97;1.70;;;7.20;93.00;;;;;;5029149;28;20211;-58
2021/05/05 08:16:09;;;;;;;6.60;1.83;;;7.20;93.50;;;;;;5032064;28;20440;-58
2021/05/05 08:18:35;;;;;;;4.40;1.93;;;7.20;94.10;;;;;;5032446;28;20480;-58
2021/05/05 08:21:02;;;;;;;2.63;1.43;;;7.30;94.90;;;;;;5031503;28;20516;-58
2021/05/05 08:23:29;;;;;;;1.80;1.70;;;7.40;93.70;;;;;;5028609;28;20486;-60
2021/05/05 08:25:54;;;;;;;5.63;1.90;;;7.40;93.80;;;;;;5034657;28;20425;-59
2021/05/05 08:28:20;;;;;;;5.13;1.60;;;7.40;92.20;;;;;;5027159;28;20972;-59
2021/05/05 08:30:46;;;;;;;5.47;2.60;;;7.40;91.70;;;;;;5029740;28;20418;-57
2021/05/05 08:33:12;;;;;;;4.23;1.80;;;7.40;89.70;;;;;;5025602;28;20294;-58
2021/05/05 08:35:39;;;;;;;4.10;2.17;;;7.50;91.20;;;;;;5028735;28;20434;-59
2021/05/05 08:38:06;;;;;;;7.57;1.90;;;7.60;82.40;;;;;;5024861;28;20454;-58
2021/05/05 08:40:35;;;;;;;8.20;2.03;;;7.70;85.70;;;;;;5031394;28;20461;-58
2021/05/05 08:43:01;;;;;;;2.90;1.90;;;7.70;78.00;;;;;;5021946;28;20441;-58
2021/05/05 08:45:28;;;;;;;12.77;2.37;;;7.80;78.60;;;;;;5030869;28;20458;-59
2021/05/05 08:47:57;;;;;;;1.83;1.73;;;7.90;77.40;;;;;;5028014;28;20438;-58
2021/05/05 08:50:27;;;;;;;4.23;1.73;;;8.00;68.90;;;;;;5028815;28;20415;-59
2021/05/05 08:52:54;;;;;;;5.60;2.10;;;8.10;73.60;;;;;;5020323;28;20466;-62
2021/05/05 08:55:21;;;;;;;4.57;2.27;;;8.10;72.80;;;;;;5026250;28;20430;-59
2021/05/05 08:57:48;;;;;;;3.00;1.80;;;8.30;69.90;;;;;;5028664;28;20434;-59
2021/05/05 09:00:17;;;;;;;2.13;1.93;;;8.40;67.80;;;;;;5023884;28;20470;-60
2021/05/05 09:02:43;;;;;;;2.87;1.90;;;8.30;70.00;;;;;;5029416;28;20489;-58
2021/05/05 09:05:12;;;;;;;4.83;1.83;;;8.40;70.00;;;;;;5033639;28;20438;-58
2021/05/05 09:07:40;;;;;;;3.43;1.70;;;8.50;71.50;;;;;;5029326;28;20488;-59
2021/05/05 09:10:09;;;;;;;5.73;1.90;;;8.50;60.90;;;;;;5028835;28;20974;-58
2021/05/05 09:12:37;;;;;;;2.93;1.73;;;8.30;61.00;;;;;;5028215;28;21073;-58
2021/05/05 09:15:15;;;;;;;2.50;1.83;;;8.20;61.80;;;;;;5027681;28;20784;-60
2021/05/05 09:17:47;;;;;;;3.63;2.10;;;8.10;60.50;;;;;;5027602;28;20464;-59
2021/05/05 09:20:17;;;;;;;4.37;1.93;;;8.10;63.70;;;;;;5030417;28;20963;-59
2021/05/05 09:23:00;;;;;;;4.20;1.80;;;8.30;65.20;;;;;;5029976;28;20462;-58
2021/05/05 09:25:38;;;;;;;4.63;2.07;;;8.60;62.70;;;;;;5028469;28;20857;-58
2021/05/05 09:28:17;;;;;;;2.10;1.67;;;8.90;62.30;;;;;;5029040;28;20980;-58
2021/05/05 09:30:47;;;;;;;4.63;2.37;;;9.10;58.00;;;;;;5010473;28;20453;-58
2021/05/05 09:33:32;;;;;;;3.10;1.80;;;9.20;53.40;;;;;;5015373;28;20496;-58
2021/05/05 09:36:08;;;;;;;4.77;2.20;;;9.20;52.10;;;;;;5021861;28;20426;-58
2021/05/05 09:38:50;;;;;;;5.30;2.10;;;9.00;50.70;;;;;;5025194;28;20428;-59
2021/05/05 09:41:22;;;;;;;6.60;2.07;;;8.90;53.40;;;;;;5033326;28;20464;-58
2021/05/05 09:43:49;;;;;;;3.43;2.50;;;8.80;55.40;;;;;;5030371;28;20435;-59
2021/05/05 09:46:40;;;;;;;2.20;1.80;;;8.80;55.60;;;;;;5021017;28;20433;-58
2021/05/05 09:49:27;;;;;;;4.20;1.90;;;8.80;55.40;;;;;;5019406;28;20447;-59
2021/05/05 09:52:05;;;;;;;9.73;2.57;;;9.00;56.20;;;;;;5017029;28;20474;-60
2021/05/05 09:54:52;;;;;;;3.03;2.30;;;9.10;54.80;;;;;;5014408;28;20472;-58
2021/05/05 09:57:32;;;;;;;4.07;2.37;;;9.30;53.00;;;;;;5022248;28;20951;-59
2021/05/05 09:59:59;;;;;;;5.73;2.07;;;9.30;50.70;;;;;;5032552;28;21144;-59
2021/05/05 10:02:29;;;;;;;5.43;2.10;;;9.30;51.50;;;;;;5021377;28;20454;-59
2021/05/05 10:05:05;;;;;;;8.23;2.17;;;9.20;50.30;;;;;;5021846;28;20427;-58
2021/05/05 10:07:49;;;;;;;6.60;2.10;;;9.20;48.90;;;;;;5025593;28;20437;-58
2021/05/05 10:10:15;;;;;;;8.67;2.10;;;9.30;48.30;;;;;;5030608;28;20437;-58
2021/05/05 10:12:41;;;;;;;5.90;1.73;;;9.30;47.20;;;;;;5023726;28;20465;-59
2021/05/05 10:15:08;;;;;;;1.73;1.63;;;9.40;45.90;;;;;;5025347;28;20436;-59
2021/05/05 10:17:35;;;;;;;3.03;1.60;;;9.70;47.30;;;;;;5019938;28;20443;-58
2021/05/05 10:20:03;;;;;;;3.47;2.30;;;10.00;45.40;;;;;;5025118;28;20482;-59
2021/05/05 10:22:29;;;;;;;4.77;2.27;;;10.20;43.80;;;;;;5022818;28;20482;-59
2021/05/05 10:24:57;;;;;;;10.27;1.90;;;10.20;44.40;;;;;;5020533;28;20438;-60
2021/05/05 10:27:23;;;;;;;3.77;1.80;;;10.30;43.60;;;;;;5020595;28;20435;-58
2021/05/05 10:29:50;;;;;;;2.20;1.67;;;10.40;42.90;;;;;;5025790;28;20656;-60
2021/05/05 10:32:20;;;;;;;4.83;2.10;;;10.60;43.80;;;;;;5018338;28;20462;-60
2021/05/05 10:34:49;;;;;;;6.50;2.00;;;10.70;44.40;;;;;;5027614;28;20461;-59
2021/05/05 10:37:15;;;;;;;3.00;1.93;;;10.90;44.10;;;;;;5021166;28;20439;-59
2021/05/05 10:39:43;;;;;;;3.37;1.97;;;11.00;44.80;;;;;;5020012;28;20473;-59
2021/05/05 10:42:18;;;;;;;4.00;1.63;;;10.80;44.90;;;;;;5025085;28;20598;-59
2021/05/05 10:44:51;;;;;;;3.77;2.10;;;10.80;44.20;;;;;;5031175;28;20453;-58
2021/05/05 10:47:24;;;;;;;2.30;1.70;;;10.80;42.40;;;;;;5027087;28;20430;-59
2021/05/05 10:50:05;;;;;;;2.77;1.70;;;10.70;39.80;;;;;;5021833;28;20435;-58
2021/05/05 10:52:34;;;;;;;6.70;2.30;;;10.50;41.30;;;;;;5020436;28;21010;-58
2021/05/05 10:55:01;;;;;;;4.93;2.70;;;10.50;40.80;;;;;;5031000;28;20436;-60
2021/05/05 10:57:27;;;;;;;2.60;2.03;;;10.50;41.60;;;;;;5030587;28;20500;-60
2021/05/05 11:00:09;;;;;;;7.13;2.37;;;10.50;41.90;;;;;;5032367;28;20464;-59
2021/05/05 11:02:40;;;;;;;3.17;2.00;;;10.50;42.10;;;;;;5019571;28;20461;-60
2021/05/05 11:05:12;;;;;;;6.00;2.07;;;10.60;42.90;;;;;;5013226;28;20437;-58
2021/05/05 11:07:51;;;;;;;3.27;1.77;;;10.70;43.10;;;;;;5027662;28;20958;-60
2021/05/05 11:10:36;;;;;;;2.20;1.80;;;11.00;42.60;;;;;;5018703;28;20554;-59
2021/05/05 11:13:23;;;;;;;3.83;1.87;;;11.30;42.90;;;;;;5025216;28;21062;-59
2021/05/05 11:15:53;;;;;;;3.53;1.63;;;11.70;42.50;;;;;;5022115;28;20524;-59
2021/05/05 11:18:31;;;;;;;2.00;1.80;;;11.80;39.90;;;;;;5022906;28;20507;-60
2021/05/05 11:21:05;;;;;;;1.80;1.53;;;11.80;40.00;;;;;;5019994;28;20454;-60
2021/05/05 11:23:38;;;;;;;2.23;1.47;;;11.80;41.00;;;;;;5024209;28;20465;-60
2021/05/05 11:26:13;;;;;;;5.90;1.83;;;12.00;38.90;;;;;;5036428;28;20454;-60
2021/05/05 11:28:57;;;;;;;3.00;1.90;;;12.00;38.40;;;;;;5040933;28;20505;-60
2021/05/05 11:31:48;;;;;;;3.53;1.70;;;11.80;36.90;;;;;;5025390;28;20510;-61
2021/05/05 11:34:23;;;;;;;4.87;1.80;;;11.60;37.60;;;;;;5028494;28;20441;-60
2021/05/05 11:36:55;;;;;;;2.20;1.57;;;11.40;37.50;;;;;;5037114;28;22650;-61
2021/05/05 11:39:37;;;;;;;5.60;1.70;;;11.10;37.00;;;;;;5039107;28;20438;-60
2021/05/05 11:42:28;;;;;;;4.33;1.87;;;10.80;36.10;;;;;;5043162;28;20501;-61
2021/05/05 11:44:54;;;;;;;2.57;1.40;;;10.80;36.60;;;;;;5031959;28;20439;-62
2021/05/05 11:47:35;;;;;;;1.30;1.20;;;10.60;36.20;;;;;;5045603;28;20437;-59
2021/05/05 11:50:24;;;;;;;3.60;1.23;;;10.70;36.20;;;;;;5043539;28;20425;-60
2021/05/05 11:52:53;;;;;;;2.43;1.53;;;10.70;36.60;;;;;;5023915;28;21050;-60
2021/05/05 11:55:29;;;;;;;1.80;1.37;;;10.80;34.80;;;;;;5020633;28;20537;-58
2021/05/05 11:57:58;;;;;;;3.87;1.30;;;10.90;34.00;;;;;;5025600;28;20444;-58
2021/05/05 12:00:25;;;;;;;2.43;1.30;;;11.20;33.60;;;;;;5026050;28;20525;-58
2021/05/05 12:02:58;;;;;;;1.63;1.50;;;11.20;32.60;;;;;;5018550;28;20446;-59
2021/05/05 12:05:30;;;;;;;7.10;1.50;;;11.40;33.10;;;;;;5035431;28;20422;-59
2021/05/05 12:08:05;;;;;;;4.73;1.47;;;11.70;33.30;;;;;;5033194;28;20424;-59
2021/05/05 12:10:40;;;;;;;1.30;1.10;;;12.10;32.70;;;;;;5029041;28;20542;-59
2021/05/05 12:13:28;;;;;;;1.60;1.30;;;12.50;32.20;;;;;;5024308;28;21359;-58
2021/05/05 12:16:05;;;;;;;1.20;1.10;;;13.00;34.10;;;;;;5027083;28;20453;-57
2021/05/05 12:18:37;;;;;;;3.00;1.57;;;13.30;32.30;;;;;;5027194;28;20430;-59
2021/05/05 12:21:12;;;;;;;3.27;1.30;;;13.20;32.10;;;;;;5026682;28;20466;-60
2021/05/05 12:23:43;;;;;;;8.30;1.50;;;13.20;31.90;;;;;;5022277;28;20997;-60
2021/05/05 12:26:16;;;;;;;3.00;1.40;;;13.10;32.20;;;;;;5031010;28;20427;-59
2021/05/05 12:28:43;;;;;;;3.13;1.50;;;13.10;31.20;;;;;;5027463;28;20480;-59
2021/05/05 12:31:14;;;;;;;2.57;1.50;;;13.20;31.60;;;;;;5024642;28;20561;-60
2021/05/05 12:33:42;;;;;;;3.10;1.37;;;13.40;32.70;;;;;;5032515;28;20510;-60
2021/05/05 12:36:16;;;;;;;1.53;1.30;;;13.60;31.40;;;;;;5022721;28;21067;-59
2021/05/05 12:38:44;;;;;;;1.80;1.40;;;13.90;31.60;;;;;;5020385;28;20429;-59
2021/05/05 12:41:17;;;;;;;3.47;1.60;;;14.10;31.30;;;;;;5029047;28;20469;-59
2021/05/05 12:43:49;;;;;;;2.03;1.57;;;14.40;31.20;;;;;;5023244;28;20473;-59
2021/05/05 12:46:22;;;;;;;5.70;1.33;;;14.20;29.50;;;;;;5023174;28;20425;-60
2021/05/05 12:48:47;;;;;;;4.17;1.40;;;14.00;30.70;;;;;;5024249;28;20431;-59
2021/05/05 12:51:16;;;;;;;1.90;1.53;;;14.00;31.30;;;;;;5030024;28;20523;-60
2021/05/05 12:54:15;;;;;;;5.07;1.60;;;14.10;32.20;;;;;;5034822;28;20196;-59
2021/05/05 12:56:49;;;;;;;1.73;1.33;;;14.30;31.40;;;;;;5025298;28;20442;-60
2021/05/05 12:59:32;;;;;;;5.23;1.50;;;14.20;30.40;;;;;;5034232;28;20458;-59
2021/05/05 13:02:08;;;;;;;2.23;1.50;;;13.80;29.50;;;;;;5032121;28;20538;-59
2021/05/05 13:04:35;;;;;;;3.07;1.30;;;13.20;29.90;;;;;;5026700;28;20480;-61
2021/05/05 13:07:02;;;;;;;2.50;1.43;;;12.80;30.70;;;;;;5044690;28;20454;-59
2021/05/05 13:09:28;;;;;;;2.63;1.77;;;12.30;31.80;;;;;;5039162;28;20426;-58